Who's Online

We have 6 guests online

Aviation WX

[source: ADDS]
KIAD 301052Z 02006KT 10SM BKN050 OVC060 04/M02 A3035 RMK AO2 SLP280 T00441022 =
KIAD 301127Z 3012/0118 02007KT P6SM -DZ SCT020 OVC050 FM301400 01008KT P6SM -DZ OVC015 FM302000 04005KT 4SM -RA BR OVC007 FM010200 VRB04KT 2SM -RA SCT004 OVC006 =
SR / SS: 01:48 / 11:33 UTC (Washington-Dulles 2015-11-30)

JoomlaWatch Agent

Home Products and Services

This section describes Multilink Systems products and services



Under construction Please Standby